sensor_id;sensor_type;location;lat;lon;timestamp;P1;durP1;ratioP1;P2;durP2;ratioP2
22571;SDS011;11452;53.368;14.658;2024-03-02T00:00:28;63.07;;;46.23;;
22571;SDS011;11452;53.368;14.658;2024-03-02T00:05:34;61.00;;;44.60;;
22571;SDS011;11452;53.368;14.658;2024-03-02T00:10:40;56.77;;;42.33;;
22571;SDS011;11452;53.368;14.658;2024-03-02T00:15:46;60.47;;;43.37;;
22571;SDS011;11452;53.368;14.658;2024-03-02T00:20:54;57.50;;;42.47;;
22571;SDS011;11452;53.368;14.658;2024-03-02T00:26:01;51.50;;;40.40;;
22571;SDS011;11452;53.368;14.658;2024-03-02T00:31:13;59.33;;;42.63;;
22571;SDS011;11452;53.368;14.658;2024-03-02T00:36:22;49.47;;;39.03;;
22571;SDS011;11452;53.368;14.658;2024-03-02T00:41:33;52.17;;;40.37;;
22571;SDS011;11452;53.368;14.658;2024-03-02T00:46:40;50.33;;;37.10;;
22571;SDS011;11452;53.368;14.658;2024-03-02T00:51:50;50.47;;;38.33;;
22571;SDS011;11452;53.368;14.658;2024-03-02T00:56:58;45.63;;;35.47;;
22571;SDS011;11452;53.368;14.658;2024-03-02T01:02:04;46.13;;;34.33;;
22571;SDS011;11452;53.368;14.658;2024-03-02T01:07:10;51.37;;;37.10;;
22571;SDS011;11452;53.368;14.658;2024-03-02T01:12:15;58.33;;;42.30;;
22571;SDS011;11452;53.368;14.658;2024-03-02T01:17:21;56.00;;;41.00;;
22571;SDS011;11452;53.368;14.658;2024-03-02T01:22:27;60.00;;;44.73;;
22571;SDS011;11452;53.368;14.658;2024-03-02T01:27:32;66.43;;;44.90;;
22571;SDS011;11452;53.368;14.658;2024-03-02T01:32:38;59.93;;;44.43;;
22571;SDS011;11452;53.368;14.658;2024-03-02T01:37:44;65.97;;;45.87;;
22571;SDS011;11452;53.368;14.658;2024-03-02T01:42:50;59.03;;;43.70;;
22571;SDS011;11452;53.368;14.658;2024-03-02T01:47:56;57.37;;;41.10;;
22571;SDS011;11452;53.368;14.658;2024-03-02T01:53:01;51.07;;;39.37;;
22571;SDS011;11452;53.368;14.658;2024-03-02T01:58:07;47.60;;;35.97;;
22571;SDS011;11452;53.368;14.658;2024-03-02T02:03:13;51.07;;;35.60;;
22571;SDS011;11452;53.368;14.658;2024-03-02T02:08:19;45.07;;;32.93;;
22571;SDS011;11452;53.368;14.658;2024-03-02T02:13:25;44.87;;;34.70;;
22571;SDS011;11452;53.368;14.658;2024-03-02T02:18:31;39.10;;;29.50;;
22571;SDS011;11452;53.368;14.658;2024-03-02T02:23:36;46.50;;;32.97;;
22571;SDS011;11452;53.368;14.658;2024-03-02T02:28:42;43.00;;;31.33;;
22571;SDS011;11452;53.368;14.658;2024-03-02T02:33:49;42.50;;;32.67;;
22571;SDS011;11452;53.368;14.658;2024-03-02T02:38:55;36.57;;;30.13;;
22571;SDS011;11452;53.368;14.658;2024-03-02T02:44:02;40.33;;;31.47;;
22571;SDS011;11452;53.368;14.658;2024-03-02T02:49:07;42.30;;;31.83;;
22571;SDS011;11452;53.368;14.658;2024-03-02T02:54:13;41.30;;;30.30;;
22571;SDS011;11452;53.368;14.658;2024-03-02T02:59:19;43.00;;;31.57;;
22571;SDS011;11452;53.368;14.658;2024-03-02T03:04:24;42.57;;;33.10;;
22571;SDS011;11452;53.368;14.658;2024-03-02T03:09:30;42.13;;;31.23;;
22571;SDS011;11452;53.368;14.658;2024-03-02T03:14:36;44.90;;;32.47;;
22571;SDS011;11452;53.368;14.658;2024-03-02T03:19:42;41.20;;;31.00;;
22571;SDS011;11452;53.368;14.658;2024-03-02T03:24:48;42.17;;;33.07;;
22571;SDS011;11452;53.368;14.658;2024-03-02T03:29:54;38.37;;;30.67;;
22571;SDS011;11452;53.368;14.658;2024-03-02T03:35:00;43.47;;;32.97;;
22571;SDS011;11452;53.368;14.658;2024-03-02T03:40:06;44.93;;;33.77;;
22571;SDS011;11452;53.368;14.658;2024-03-02T03:45:15;49.73;;;35.23;;
22571;SDS011;11452;53.368;14.658;2024-03-02T03:50:21;46.80;;;34.90;;
22571;SDS011;11452;53.368;14.658;2024-03-02T03:55:27;44.73;;;34.37;;
22571;SDS011;11452;53.368;14.658;2024-03-02T04:00:32;46.53;;;36.47;;
22571;SDS011;11452;53.368;14.658;2024-03-02T04:05:38;51.20;;;37.97;;
22571;SDS011;11452;53.368;14.658;2024-03-02T04:10:44;45.83;;;34.73;;
22571;SDS011;11452;53.368;14.658;2024-03-02T04:15:50;48.53;;;36.17;;
22571;SDS011;11452;53.368;14.658;2024-03-02T04:20:58;51.07;;;39.53;;
22571;SDS011;11452;53.368;14.658;2024-03-02T04:26:04;54.57;;;41.53;;
22571;SDS011;11452;53.368;14.658;2024-03-02T04:31:09;58.53;;;41.27;;
22571;SDS011;11452;53.368;14.658;2024-03-02T04:36:15;55.80;;;41.73;;
22571;SDS011;11452;53.368;14.658;2024-03-02T04:41:21;54.40;;;41.50;;
22571;SDS011;11452;53.368;14.658;2024-03-02T04:46:27;61.07;;;44.60;;
22571;SDS011;11452;53.368;14.658;2024-03-02T04:51:32;53.33;;;41.97;;
22571;SDS011;11452;53.368;14.658;2024-03-02T04:56:38;60.43;;;43.90;;
22571;SDS011;11452;53.368;14.658;2024-03-02T05:01:51;54.97;;;41.90;;
22571;SDS011;11452;53.368;14.658;2024-03-02T05:06:57;68.10;;;47.20;;
22571;SDS011;11452;53.368;14.658;2024-03-02T05:12:03;62.67;;;45.70;;
22571;SDS011;11452;53.368;14.658;2024-03-02T05:17:23;64.23;;;47.17;;
22571;SDS011;11452;53.368;14.658;2024-03-02T05:22:28;67.77;;;47.17;;
22571;SDS011;11452;53.368;14.658;2024-03-02T05:27:34;61.40;;;45.57;;
22571;SDS011;11452;53.368;14.658;2024-03-02T05:32:40;65.67;;;48.07;;
22571;SDS011;11452;53.368;14.658;2024-03-02T05:37:46;62.67;;;47.87;;
22571;SDS011;11452;53.368;14.658;2024-03-02T05:42:51;59.00;;;45.13;;
22571;SDS011;11452;53.368;14.658;2024-03-02T05:47:57;63.23;;;45.90;;
22571;SDS011;11452;53.368;14.658;2024-03-02T05:53:03;61.00;;;47.40;;
22571;SDS011;11452;53.368;14.658;2024-03-02T05:58:11;70.83;;;50.13;;
22571;SDS011;11452;53.368;14.658;2024-03-02T06:03:18;65.80;;;48.90;;
22571;SDS011;11452;53.368;14.658;2024-03-02T06:08:24;66.03;;;49.77;;
22571;SDS011;11452;53.368;14.658;2024-03-02T06:13:30;64.20;;;48.53;;
22571;SDS011;11452;53.368;14.658;2024-03-02T06:18:35;68.40;;;50.30;;
22571;SDS011;11452;53.368;14.658;2024-03-02T06:23:41;64.50;;;49.30;;
22571;SDS011;11452;53.368;14.658;2024-03-02T06:28:47;64.60;;;49.83;;
22571;SDS011;11452;53.368;14.658;2024-03-02T06:33:53;62.53;;;48.23;;
22571;SDS011;11452;53.368;14.658;2024-03-02T06:38:59;65.93;;;49.50;;
22571;SDS011;11452;53.368;14.658;2024-03-02T06:44:04;76.33;;;49.90;;
22571;SDS011;11452;53.368;14.658;2024-03-02T06:49:10;66.40;;;51.80;;
22571;SDS011;11452;53.368;14.658;2024-03-02T06:54:16;66.30;;;50.80;;
22571;SDS011;11452;53.368;14.658;2024-03-02T06:59:21;69.83;;;50.70;;
22571;SDS011;11452;53.368;14.658;2024-03-02T07:04:28;68.30;;;49.97;;
22571;SDS011;11452;53.368;14.658;2024-03-02T07:09:34;73.00;;;52.17;;
22571;SDS011;11452;53.368;14.658;2024-03-02T07:14:39;74.27;;;54.47;;
22571;SDS011;11452;53.368;14.658;2024-03-02T07:20:03;70.77;;;50.93;;
22571;SDS011;11452;53.368;14.658;2024-03-02T07:25:10;78.10;;;54.70;;
22571;SDS011;11452;53.368;14.658;2024-03-02T07:30:18;73.13;;;52.43;;
22571;SDS011;11452;53.368;14.658;2024-03-02T07:35:24;77.27;;;53.93;;
22571;SDS011;11452;53.368;14.658;2024-03-02T07:40:34;75.70;;;53.80;;
22571;SDS011;11452;53.368;14.658;2024-03-02T07:45:40;75.70;;;53.67;;
22571;SDS011;11452;53.368;14.658;2024-03-02T07:50:46;80.23;;;56.50;;
22571;SDS011;11452;53.368;14.658;2024-03-02T07:55:51;83.73;;;56.80;;
22571;SDS011;11452;53.368;14.658;2024-03-02T08:00:57;77.63;;;54.33;;
22571;SDS011;11452;53.368;14.658;2024-03-02T08:06:05;79.80;;;54.23;;
22571;SDS011;11452;53.368;14.658;2024-03-02T08:11:11;83.47;;;58.23;;
22571;SDS011;11452;53.368;14.658;2024-03-02T08:16:18;84.07;;;58.90;;
22571;SDS011;11452;53.368;14.658;2024-03-02T08:21:24;83.13;;;57.03;;
22571;SDS011;11452;53.368;14.658;2024-03-02T08:26:32;83.97;;;58.40;;
22571;SDS011;11452;53.368;14.658;2024-03-02T08:31:39;81.33;;;56.37;;
22571;SDS011;11452;53.368;14.658;2024-03-02T08:36:45;85.53;;;59.00;;
22571;SDS011;11452;53.368;14.658;2024-03-02T08:41:52;82.03;;;54.60;;
22571;SDS011;11452;53.368;14.658;2024-03-02T08:46:58;74.87;;;50.60;;
22571;SDS011;11452;53.368;14.658;2024-03-02T08:52:04;75.33;;;52.93;;
22571;SDS011;11452;53.368;14.658;2024-03-02T08:57:11;73.20;;;50.17;;
22571;SDS011;11452;53.368;14.658;2024-03-02T09:02:17;72.90;;;51.27;;
22571;SDS011;11452;53.368;14.658;2024-03-02T09:07:23;68.00;;;48.27;;
22571;SDS011;11452;53.368;14.658;2024-03-02T09:12:29;75.13;;;51.43;;
22571;SDS011;11452;53.368;14.658;2024-03-02T09:17:35;70.87;;;49.93;;
22571;SDS011;11452;53.368;14.658;2024-03-02T09:22:41;68.60;;;48.37;;
22571;SDS011;11452;53.368;14.658;2024-03-02T09:27:47;73.23;;;49.20;;
22571;SDS011;11452;53.368;14.658;2024-03-02T09:32:53;64.87;;;45.83;;
22571;SDS011;11452;53.368;14.658;2024-03-02T09:38:00;67.07;;;47.63;;
22571;SDS011;11452;53.368;14.658;2024-03-02T09:43:07;64.83;;;43.60;;
22571;SDS011;11452;53.368;14.658;2024-03-02T09:48:13;69.67;;;48.40;;
22571;SDS011;11452;53.368;14.658;2024-03-02T09:53:21;66.83;;;46.97;;
22571;SDS011;11452;53.368;14.658;2024-03-02T09:58:28;59.03;;;43.80;;
22571;SDS011;11452;53.368;14.658;2024-03-02T10:03:34;55.13;;;41.37;;
22571;SDS011;11452;53.368;14.658;2024-03-02T10:08:43;52.67;;;39.60;;
22571;SDS011;11452;53.368;14.658;2024-03-02T10:13:49;56.83;;;48.90;;
22571;SDS011;11452;53.368;14.658;2024-03-02T10:18:54;61.97;;;47.07;;
22571;SDS011;11452;53.368;14.658;2024-03-02T10:24:10;48.27;;;37.63;;
22571;SDS011;11452;53.368;14.658;2024-03-02T10:29:14;49.53;;;39.53;;
22571;SDS011;11452;53.368;14.658;2024-03-02T10:34:21;44.10;;;39.27;;
22571;SDS011;11452;53.368;14.658;2024-03-02T10:39:27;49.23;;;41.23;;
22571;SDS011;11452;53.368;14.658;2024-03-02T10:44:35;42.73;;;38.10;;
22571;SDS011;11452;53.368;14.658;2024-03-02T10:49:41;40.70;;;35.13;;
22571;SDS011;11452;53.368;14.658;2024-03-02T10:54:48;42.00;;;37.40;;
22571;SDS011;11452;53.368;14.658;2024-03-02T10:59:56;41.00;;;36.53;;
22571;SDS011;11452;53.368;14.658;2024-03-02T11:05:03;43.67;;;37.70;;
22571;SDS011;11452;53.368;14.658;2024-03-02T11:10:11;42.27;;;36.67;;
22571;SDS011;11452;53.368;14.658;2024-03-02T11:15:18;41.53;;;36.67;;
22571;SDS011;11452;53.368;14.658;2024-03-02T11:20:25;38.87;;;34.27;;
22571;SDS011;11452;53.368;14.658;2024-03-02T11:25:34;37.03;;;33.33;;
22571;SDS011;11452;53.368;14.658;2024-03-02T11:35:51;38.50;;;34.03;;
22571;SDS011;11452;53.368;14.658;2024-03-02T11:40:58;36.90;;;33.00;;
22571;SDS011;11452;53.368;14.658;2024-03-02T11:46:06;35.57;;;31.43;;
22571;SDS011;11452;53.368;14.658;2024-03-02T11:51:12;34.90;;;31.23;;
22571;SDS011;11452;53.368;14.658;2024-03-02T11:56:18;37.93;;;33.93;;
22571;SDS011;11452;53.368;14.658;2024-03-02T12:01:25;38.17;;;33.70;;
22571;SDS011;11452;53.368;14.658;2024-03-02T12:06:32;33.20;;;29.70;;
22571;SDS011;11452;53.368;14.658;2024-03-02T12:11:38;36.67;;;32.80;;
22571;SDS011;11452;53.368;14.658;2024-03-02T12:16:44;34.67;;;30.97;;
22571;SDS011;11452;53.368;14.658;2024-03-02T12:21:50;35.40;;;31.00;;
22571;SDS011;11452;53.368;14.658;2024-03-02T12:26:56;32.00;;;28.70;;
22571;SDS011;11452;53.368;14.658;2024-03-02T12:32:03;29.90;;;26.80;;
22571;SDS011;11452;53.368;14.658;2024-03-02T12:37:11;35.53;;;31.60;;
22571;SDS011;11452;53.368;14.658;2024-03-02T12:42:17;35.67;;;31.87;;
22571;SDS011;11452;53.368;14.658;2024-03-02T12:47:23;31.53;;;28.20;;
22571;SDS011;11452;53.368;14.658;2024-03-02T12:52:29;30.57;;;27.33;;
22571;SDS011;11452;53.368;14.658;2024-03-02T12:57:39;28.20;;;25.37;;
22571;SDS011;11452;53.368;14.658;2024-03-02T13:02:46;32.60;;;29.03;;
22571;SDS011;11452;53.368;14.658;2024-03-02T13:07:55;32.70;;;29.10;;
22571;SDS011;11452;53.368;14.658;2024-03-02T13:13:01;29.10;;;26.00;;
22571;SDS011;11452;53.368;14.658;2024-03-02T13:18:07;33.40;;;29.87;;
22571;SDS011;11452;53.368;14.658;2024-03-02T13:23:13;29.00;;;25.90;;
22571;SDS011;11452;53.368;14.658;2024-03-02T13:28:19;29.23;;;26.20;;
22571;SDS011;11452;53.368;14.658;2024-03-02T13:33:25;26.40;;;23.73;;
22571;SDS011;11452;53.368;14.658;2024-03-02T13:38:31;31.90;;;27.03;;
22571;SDS011;11452;53.368;14.658;2024-03-02T13:43:37;31.03;;;27.83;;
22571;SDS011;11452;53.368;14.658;2024-03-02T13:48:43;30.00;;;26.83;;
22571;SDS011;11452;53.368;14.658;2024-03-02T13:53:49;27.00;;;24.13;;
22571;SDS011;11452;53.368;14.658;2024-03-02T13:58:56;24.47;;;21.97;;
22571;SDS011;11452;53.368;14.658;2024-03-02T14:04:02;29.00;;;25.83;;
22571;SDS011;11452;53.368;14.658;2024-03-02T14:09:08;27.70;;;24.90;;
22571;SDS011;11452;53.368;14.658;2024-03-02T14:14:14;25.67;;;22.87;;
22571;SDS011;11452;53.368;14.658;2024-03-02T14:19:19;27.27;;;24.53;;
22571;SDS011;11452;53.368;14.658;2024-03-02T14:24:25;28.20;;;24.93;;
22571;SDS011;11452;53.368;14.658;2024-03-02T14:29:33;25.33;;;22.73;;
22571;SDS011;11452;53.368;14.658;2024-03-02T14:34:42;29.50;;;26.47;;
22571;SDS011;11452;53.368;14.658;2024-03-02T14:39:49;30.00;;;26.97;;
22571;SDS011;11452;53.368;14.658;2024-03-02T14:44:55;29.10;;;26.20;;
22571;SDS011;11452;53.368;14.658;2024-03-02T14:50:01;28.73;;;25.73;;
22571;SDS011;11452;53.368;14.658;2024-03-02T14:55:10;28.10;;;25.20;;
22571;SDS011;11452;53.368;14.658;2024-03-02T15:00:16;29.53;;;26.40;;
22571;SDS011;11452;53.368;14.658;2024-03-02T15:05:22;30.07;;;27.13;;
22571;SDS011;11452;53.368;14.658;2024-03-02T15:10:29;35.20;;;29.53;;
22571;SDS011;11452;53.368;14.658;2024-03-02T15:15:37;32.03;;;28.70;;
22571;SDS011;11452;53.368;14.658;2024-03-02T15:20:42;30.57;;;27.07;;
22571;SDS011;11452;53.368;14.658;2024-03-02T15:25:48;34.80;;;31.10;;
22571;SDS011;11452;53.368;14.658;2024-03-02T15:30:54;36.30;;;31.73;;
22571;SDS011;11452;53.368;14.658;2024-03-02T15:36:00;35.70;;;31.40;;
22571;SDS011;11452;53.368;14.658;2024-03-02T15:41:07;46.37;;;40.50;;
22571;SDS011;11452;53.368;14.658;2024-03-02T15:46:13;42.03;;;37.53;;
22571;SDS011;11452;53.368;14.658;2024-03-02T15:51:19;42.73;;;35.80;;
22571;SDS011;11452;53.368;14.658;2024-03-02T15:56:24;44.30;;;39.50;;
22571;SDS011;11452;53.368;14.658;2024-03-02T16:01:30;41.90;;;37.50;;
22571;SDS011;11452;53.368;14.658;2024-03-02T16:06:37;43.37;;;38.17;;
22571;SDS011;11452;53.368;14.658;2024-03-02T16:11:43;44.13;;;39.40;;
22571;SDS011;11452;53.368;14.658;2024-03-02T16:16:48;39.73;;;35.53;;
22571;SDS011;11452;53.368;14.658;2024-03-02T16:21:54;41.27;;;35.33;;
22571;SDS011;11452;53.368;14.658;2024-03-02T16:27:00;41.40;;;36.83;;
22571;SDS011;11452;53.368;14.658;2024-03-02T16:32:06;42.87;;;38.43;;
22571;SDS011;11452;53.368;14.658;2024-03-02T16:37:11;47.53;;;40.27;;
22571;SDS011;11452;53.368;14.658;2024-03-02T16:42:18;46.60;;;41.50;;
22571;SDS011;11452;53.368;14.658;2024-03-02T16:47:28;49.53;;;41.60;;
22571;SDS011;11452;53.368;14.658;2024-03-02T16:52:34;48.00;;;42.00;;
22571;SDS011;11452;53.368;14.658;2024-03-02T16:57:39;39.57;;;35.37;;
22571;SDS011;11452;53.368;14.658;2024-03-02T17:02:46;39.60;;;34.13;;
22571;SDS011;11452;53.368;14.658;2024-03-02T17:07:52;45.80;;;40.67;;
22571;SDS011;11452;53.368;14.658;2024-03-02T17:12:57;40.43;;;34.50;;
22571;SDS011;11452;53.368;14.658;2024-03-02T17:18:03;40.00;;;35.33;;
22571;SDS011;11452;53.368;14.658;2024-03-02T17:23:09;41.00;;;36.37;;
22571;SDS011;11452;53.368;14.658;2024-03-02T17:28:23;42.70;;;36.87;;
22571;SDS011;11452;53.368;14.658;2024-03-02T17:33:27;37.47;;;33.53;;
22571;SDS011;11452;53.368;14.658;2024-03-02T17:38:33;40.07;;;35.57;;
22571;SDS011;11452;53.368;14.658;2024-03-02T17:43:39;37.20;;;32.57;;
22571;SDS011;11452;53.368;14.658;2024-03-02T17:48:45;40.77;;;34.37;;
22571;SDS011;11452;53.368;14.658;2024-03-02T17:53:50;40.97;;;34.23;;
22571;SDS011;11452;53.368;14.658;2024-03-02T17:58:56;36.20;;;31.90;;
22571;SDS011;11452;53.368;14.658;2024-03-02T18:04:02;39.50;;;34.03;;
22571;SDS011;11452;53.368;14.658;2024-03-02T18:09:10;45.70;;;37.90;;
22571;SDS011;11452;53.368;14.658;2024-03-02T18:14:15;45.77;;;39.17;;
22571;SDS011;11452;53.368;14.658;2024-03-02T18:19:21;38.13;;;33.43;;
22571;SDS011;11452;53.368;14.658;2024-03-02T18:24:27;42.53;;;35.53;;
22571;SDS011;11452;53.368;14.658;2024-03-02T18:29:33;38.30;;;33.33;;
22571;SDS011;11452;53.368;14.658;2024-03-02T18:34:39;33.80;;;30.17;;
22571;SDS011;11452;53.368;14.658;2024-03-02T18:39:45;36.10;;;31.50;;
22571;SDS011;11452;53.368;14.658;2024-03-02T18:44:51;42.27;;;36.27;;
22571;SDS011;11452;53.368;14.658;2024-03-02T18:49:57;32.97;;;29.43;;
22571;SDS011;11452;53.368;14.658;2024-03-02T18:55:05;37.33;;;31.63;;
22571;SDS011;11452;53.368;14.658;2024-03-02T19:00:12;39.50;;;34.43;;
22571;SDS011;11452;53.368;14.658;2024-03-02T19:05:18;42.97;;;38.40;;
22571;SDS011;11452;53.368;14.658;2024-03-02T19:10:24;45.40;;;39.00;;
22571;SDS011;11452;53.368;14.658;2024-03-02T19:15:32;44.60;;;38.87;;
22571;SDS011;11452;53.368;14.658;2024-03-02T19:20:38;44.67;;;37.33;;
22571;SDS011;11452;53.368;14.658;2024-03-02T19:25:45;42.93;;;37.50;;
22571;SDS011;11452;53.368;14.658;2024-03-02T19:30:51;35.07;;;30.97;;
22571;SDS011;11452;53.368;14.658;2024-03-02T19:35:57;37.00;;;32.17;;
22571;SDS011;11452;53.368;14.658;2024-03-02T19:41:03;39.83;;;34.07;;
22571;SDS011;11452;53.368;14.658;2024-03-02T19:46:14;38.97;;;34.73;;
22571;SDS011;11452;53.368;14.658;2024-03-02T19:51:16;43.63;;;36.93;;
22571;SDS011;11452;53.368;14.658;2024-03-02T19:56:22;43.80;;;36.93;;
22571;SDS011;11452;53.368;14.658;2024-03-02T20:01:27;44.97;;;37.50;;
22571;SDS011;11452;53.368;14.658;2024-03-02T20:06:33;42.03;;;34.13;;
22571;SDS011;11452;53.368;14.658;2024-03-02T20:11:39;49.10;;;39.90;;
22571;SDS011;11452;53.368;14.658;2024-03-02T20:16:46;50.50;;;41.10;;
22571;SDS011;11452;53.368;14.658;2024-03-02T20:21:51;45.57;;;37.63;;
22571;SDS011;11452;53.368;14.658;2024-03-02T20:26:57;47.00;;;35.87;;
22571;SDS011;11452;53.368;14.658;2024-03-02T20:32:03;49.33;;;38.03;;
22571;SDS011;11452;53.368;14.658;2024-03-02T20:37:09;43.73;;;35.67;;
22571;SDS011;11452;53.368;14.658;2024-03-02T20:42:15;42.00;;;34.37;;
22571;SDS011;11452;53.368;14.658;2024-03-02T20:47:21;45.83;;;35.17;;
22571;SDS011;11452;53.368;14.658;2024-03-02T20:52:26;42.33;;;32.67;;
22571;SDS011;11452;53.368;14.658;2024-03-02T20:57:32;43.17;;;35.30;;
22571;SDS011;11452;53.368;14.658;2024-03-02T21:02:38;41.77;;;34.63;;
22571;SDS011;11452;53.368;14.658;2024-03-02T21:07:43;40.07;;;32.83;;
22571;SDS011;11452;53.368;14.658;2024-03-02T21:12:49;38.13;;;30.93;;
22571;SDS011;11452;53.368;14.658;2024-03-02T21:17:56;44.10;;;34.07;;
22571;SDS011;11452;53.368;14.658;2024-03-02T21:23:03;39.93;;;29.77;;
22571;SDS011;11452;53.368;14.658;2024-03-02T21:28:11;33.83;;;30.03;;
22571;SDS011;11452;53.368;14.658;2024-03-02T21:33:17;41.03;;;32.70;;
22571;SDS011;11452;53.368;14.658;2024-03-02T21:38:23;40.60;;;31.10;;
22571;SDS011;11452;53.368;14.658;2024-03-02T21:43:29;42.63;;;32.30;;
22571;SDS011;11452;53.368;14.658;2024-03-02T21:48:37;41.60;;;33.00;;
22571;SDS011;11452;53.368;14.658;2024-03-02T21:53:44;43.17;;;33.10;;
22571;SDS011;11452;53.368;14.658;2024-03-02T21:58:51;43.57;;;34.13;;
22571;SDS011;11452;53.368;14.658;2024-03-02T22:03:57;46.60;;;32.47;;
22571;SDS011;11452;53.368;14.658;2024-03-02T22:09:03;45.57;;;33.53;;
22571;SDS011;11452;53.368;14.658;2024-03-02T22:14:09;46.37;;;33.93;;
22571;SDS011;11452;53.368;14.658;2024-03-02T22:19:15;44.10;;;33.40;;
22571;SDS011;11452;53.368;14.658;2024-03-02T22:24:21;45.87;;;35.83;;
22571;SDS011;11452;53.368;14.658;2024-03-02T22:29:27;43.00;;;32.80;;
22571;SDS011;11452;53.368;14.658;2024-03-02T22:34:33;42.50;;;34.13;;
22571;SDS011;11452;53.368;14.658;2024-03-02T22:39:38;45.00;;;32.63;;
22571;SDS011;11452;53.368;14.658;2024-03-02T22:44:44;49.40;;;35.17;;
22571;SDS011;11452;53.368;14.658;2024-03-02T22:49:50;43.07;;;31.53;;
22571;SDS011;11452;53.368;14.658;2024-03-02T22:54:58;42.30;;;33.53;;
22571;SDS011;11452;53.368;14.658;2024-03-02T23:00:04;46.13;;;32.57;;
22571;SDS011;11452;53.368;14.658;2024-03-02T23:05:15;56.53;;;37.53;;
22571;SDS011;11452;53.368;14.658;2024-03-02T23:10:21;47.00;;;36.00;;
22571;SDS011;11452;53.368;14.658;2024-03-02T23:15:27;55.17;;;36.73;;
22571;SDS011;11452;53.368;14.658;2024-03-02T23:20:33;50.07;;;34.87;;
22571;SDS011;11452;53.368;14.658;2024-03-02T23:25:39;51.13;;;37.57;;
22571;SDS011;11452;53.368;14.658;2024-03-02T23:30:45;49.90;;;36.10;;
22571;SDS011;11452;53.368;14.658;2024-03-02T23:35:51;54.00;;;38.23;;
22571;SDS011;11452;53.368;14.658;2024-03-02T23:40:57;55.40;;;39.40;;
22571;SDS011;11452;53.368;14.658;2024-03-02T23:46:14;54.20;;;39.00;;
22571;SDS011;11452;53.368;14.658;2024-03-02T23:51:20;51.87;;;38.37;;
22571;SDS011;11452;53.368;14.658;2024-03-02T23:56:25;55.80;;;40.90;;
